createdAt,value
2019-05-12T01:03:59.434Z,2.67
2019-05-12T01:06:28.422Z,2.63
2019-05-12T01:09:05.389Z,2.70
2019-05-12T01:11:43.150Z,2.63
2019-05-12T01:14:13.975Z,2.40
2019-05-12T01:16:42.731Z,3.17
2019-05-12T01:19:11.835Z,2.80
2019-05-12T01:21:40.724Z,2.33
2019-05-12T01:24:09.461Z,2.70
2019-05-12T01:26:38.870Z,2.40
2019-05-12T01:29:08.713Z,2.90
2019-05-12T01:31:39.154Z,2.53
2019-05-12T01:34:08.184Z,2.37
2019-05-12T01:36:38.088Z,2.67
2019-05-12T01:39:09.213Z,2.73
2019-05-12T01:41:38.943Z,2.33
2019-05-12T01:44:08.967Z,3.97
2019-05-12T01:46:38.426Z,3.00
2019-05-12T01:49:08.324Z,2.50
2019-05-12T01:51:38.611Z,2.40
2019-05-12T01:54:14.699Z,2.20
2019-05-12T01:56:39.266Z,2.13
2019-05-12T01:59:08.291Z,3.20
2019-05-12T02:01:38.968Z,3.07
2019-05-12T02:04:08.647Z,3.17
2019-05-12T02:06:38.620Z,3.50
2019-05-12T02:09:09.250Z,3.60
2019-05-12T02:11:38.193Z,3.50
2019-05-12T02:14:09.271Z,3.07
2019-05-12T02:16:38.805Z,3.37
2019-05-12T02:19:09.238Z,3.30
2019-05-12T02:21:38.325Z,3.27
2019-05-12T02:24:07.982Z,3.67
2019-05-12T02:26:38.218Z,4.17
2019-05-12T02:29:08.024Z,3.93
2019-05-12T02:31:39.776Z,4.33
2019-05-12T02:34:07.624Z,3.77
2019-05-12T02:36:36.335Z,4.20
2019-05-12T02:39:08.885Z,3.77
2019-05-12T02:41:37.704Z,4.50
2019-05-12T02:44:06.484Z,3.90
2019-05-12T02:46:35.734Z,3.63
2019-05-12T02:49:05.180Z,3.20
2019-05-12T02:51:35.674Z,3.80
2019-05-12T02:54:06.048Z,3.43
2019-05-12T02:56:36.325Z,3.77
2019-05-12T02:59:05.662Z,3.57
2019-05-12T03:01:36.238Z,3.73
2019-05-12T03:04:06.137Z,3.57
2019-05-12T03:06:36.851Z,3.63
2019-05-12T03:09:07.896Z,3.47
2019-05-12T03:11:38.164Z,3.73
2019-05-12T03:14:06.998Z,2.80
2019-05-12T03:16:35.794Z,3.33
2019-05-12T03:19:05.262Z,3.20
2019-05-12T03:21:35.381Z,3.50
2019-05-12T03:24:06.651Z,4.17
2019-05-12T03:26:35.516Z,4.40
2019-05-12T03:29:05.870Z,3.70
2019-05-12T03:31:39.944Z,3.97
2019-05-12T03:34:09.430Z,4.03
2019-05-12T03:36:42.102Z,4.43
2019-05-12T03:39:10.018Z,4.30
2019-05-12T03:41:38.792Z,3.70
2019-05-12T03:44:07.562Z,5.10
2019-05-12T03:46:36.237Z,3.87
2019-05-12T03:49:05.582Z,4.40
2019-05-12T03:51:35.217Z,4.23
2019-05-12T03:54:05.484Z,3.90
2019-05-12T03:56:35.108Z,3.80
2019-05-12T03:59:05.436Z,3.37
2019-05-12T04:01:36.305Z,4.03
2019-05-12T04:04:05.788Z,3.80
2019-05-12T04:06:35.075Z,3.80
2019-05-12T04:09:06.459Z,3.50
2019-05-12T04:11:35.832Z,3.80
2019-05-12T04:14:07.153Z,3.83
2019-05-12T04:16:36.653Z,4.50
2019-05-12T04:19:05.868Z,3.53
2019-05-12T04:21:35.522Z,3.60
2019-05-12T04:24:06.231Z,3.80
2019-05-12T04:26:36.631Z,3.53
2019-05-12T04:29:05.814Z,3.97
2019-05-12T04:31:37.037Z,3.73
2019-05-12T04:34:05.951Z,4.47
2019-05-12T04:36:35.780Z,3.90
2019-05-12T04:39:07.596Z,3.33
2019-05-12T04:41:36.850Z,4.07
2019-05-12T04:44:06.294Z,4.17
2019-05-12T04:46:35.269Z,4.57
2019-05-12T04:49:05.314Z,3.70
2019-05-12T04:51:35.222Z,3.77
2019-05-12T04:54:05.758Z,4.60
2019-05-12T04:56:36.206Z,3.60
2019-05-12T04:59:06.652Z,3.73
2019-05-12T05:01:35.687Z,2.80
2019-05-12T05:04:05.633Z,2.80
2019-05-12T05:06:36.194Z,2.70
2019-05-12T05:09:07.852Z,2.63
2019-05-12T05:11:36.741Z,2.13
2019-05-12T05:14:06.531Z,2.20
2019-05-12T05:16:35.414Z,2.70
2019-05-12T05:19:04.259Z,2.70
2019-05-12T05:21:34.536Z,2.50
2019-05-12T05:24:03.932Z,2.60
2019-05-12T05:26:36.679Z,2.10
2019-05-12T05:29:04.630Z,1.90
2019-05-12T05:31:33.779Z,2.33
2019-05-12T05:34:04.835Z,2.50
2019-05-12T05:36:35.740Z,2.20
2019-05-12T05:39:07.958Z,2.60
2019-05-12T05:41:48.951Z,2.30
2019-05-12T05:44:13.850Z,2.17
2019-05-12T05:46:48.214Z,2.30
2019-05-12T05:49:13.694Z,2.43
2019-05-12T05:51:46.630Z,2.13
2019-05-12T05:54:13.722Z,2.40
2019-05-12T05:56:57.750Z,2.30
2019-05-12T05:59:15.025Z,2.47
2019-05-12T06:01:47.109Z,2.17
2019-05-12T06:04:14.701Z,3.40
2019-05-12T06:06:50.707Z,2.17
2019-05-12T06:09:14.227Z,2.27
2019-05-12T06:11:43.756Z,1.80
2019-05-12T06:14:16.148Z,1.70
2019-05-12T06:16:43.760Z,2.00
2019-05-12T06:19:14.061Z,2.00
2019-05-12T06:21:44.225Z,1.77
2019-05-12T06:24:15.629Z,1.50
2019-05-12T06:26:56.657Z,1.90
2019-05-12T06:29:20.141Z,1.83
2019-05-12T06:31:44.987Z,1.70
2019-05-12T06:34:20.612Z,2.00
2019-05-12T06:36:45.951Z,2.20
2019-05-12T06:39:18.651Z,1.80
2019-05-12T06:41:45.300Z,2.13
2019-05-12T06:44:19.204Z,1.90
2019-05-12T06:46:45.539Z,2.20
2019-05-12T06:49:17.500Z,1.93
2019-05-12T06:51:45.215Z,2.10
2019-05-12T06:54:15.063Z,1.37
2019-05-12T06:56:44.228Z,1.80
2019-05-12T06:59:14.794Z,2.20
2019-05-12T07:01:45.030Z,1.80
2019-05-12T07:04:14.299Z,1.90
2019-05-12T07:06:44.163Z,1.47
2019-05-12T07:09:16.459Z,1.47
2019-05-12T07:11:53.547Z,1.40
2019-05-12T07:14:22.686Z,2.27
2019-05-12T07:17:01.804Z,1.63
2019-05-12T07:19:25.607Z,1.23
2019-05-12T07:21:59.861Z,1.67
2019-05-12T07:24:26.440Z,1.70
2019-05-12T07:27:03.996Z,1.47
2019-05-12T07:29:30.005Z,1.50
2019-05-12T07:31:58.924Z,1.70
2019-05-12T07:34:27.798Z,0.80
2019-05-12T07:36:57.825Z,1.60
2019-05-12T07:39:27.781Z,0.83
2019-05-12T07:41:59.679Z,1.10
2019-05-12T07:44:32.129Z,1.10
2019-05-12T07:47:03.570Z,0.83
2019-05-12T07:49:38.252Z,0.80
2019-05-12T07:52:05.343Z,1.10
2019-05-12T07:54:39.221Z,0.90
2019-05-12T07:57:11.826Z,1.10
2019-05-12T07:59:40.969Z,0.97
2019-05-12T08:02:06.170Z,0.90
2019-05-12T08:04:39.719Z,0.97
2019-05-12T08:07:09.114Z,0.70
2019-05-12T08:09:37.990Z,0.80
2019-05-12T08:12:09.521Z,0.90
2019-05-12T08:14:37.425Z,0.83
2019-05-12T08:17:12.221Z,0.77
2019-05-12T08:19:38.901Z,1.10
2019-05-12T08:22:07.738Z,0.80
2019-05-12T08:24:42.838Z,0.80
2019-05-12T08:27:07.014Z,0.97
2019-05-12T08:29:36.116Z,2.23
2019-05-12T08:32:09.884Z,1.00
2019-05-12T08:34:35.789Z,0.90
2019-05-12T08:37:06.786Z,1.10
2019-05-12T08:39:38.844Z,1.10
2019-05-12T08:42:06.534Z,1.10
2019-05-12T08:44:47.554Z,0.70
2019-05-12T08:47:35.497Z,0.90
2019-05-12T08:50:04.588Z,1.17
2019-05-12T08:52:37.148Z,0.83
2019-05-12T08:55:04.413Z,1.00
2019-05-12T08:57:40.851Z,0.87
2019-05-12T09:00:09.613Z,0.90
2019-05-12T09:02:39.931Z,0.83
2019-05-12T09:05:09.380Z,1.50
2019-05-12T09:07:40.074Z,0.80
2019-05-12T09:10:09.144Z,0.80
2019-05-12T09:12:38.110Z,0.93
2019-05-12T09:15:13.620Z,1.00
2019-05-12T09:20:48.794Z,0.70
2019-05-12T09:23:13.847Z,0.45
2019-05-12T09:25:45.273Z,0.80
2019-05-12T09:28:19.432Z,1.20
2019-05-12T09:30:58.387Z,0.90
2019-05-12T09:33:34.098Z,1.00
2019-05-12T09:36:00.707Z,0.80
2019-05-12T09:38:29.667Z,0.80
2019-05-12T09:41:05.423Z,0.90
2019-05-12T09:43:40.189Z,1.10
2019-05-12T09:46:07.151Z,0.80
2019-05-12T09:48:43.875Z,0.77
2019-05-12T09:51:09.502Z,0.80
2019-05-12T09:53:50.752Z,0.90
2019-05-12T09:56:30.154Z,1.27
2019-05-12T09:59:16.927Z,1.13
2019-05-12T10:01:37.318Z,1.10
2019-05-12T10:04:10.344Z,1.20
2019-05-12T10:06:36.837Z,0.83
2019-05-12T10:09:08.797Z,1.63
2019-05-12T10:11:37.927Z,0.70
2019-05-12T10:14:10.802Z,0.87
2019-05-12T10:16:39.535Z,1.27
2019-05-12T10:19:08.067Z,0.50
2019-05-12T10:21:40.907Z,0.67
2019-05-12T10:24:09.775Z,0.60
2019-05-12T10:26:41.199Z,1.02
2019-05-12T10:29:17.525Z,0.70
2019-05-12T10:31:40.383Z,0.97
2019-05-12T10:34:14.489Z,1.30
2019-05-12T10:36:49.022Z,1.07
2019-05-12T10:39:16.640Z,0.90
2019-05-12T10:41:48.632Z,0.70
2019-05-12T10:44:17.502Z,0.70
2019-05-12T10:46:48.091Z,0.77
2019-05-12T10:49:17.186Z,0.60
2019-05-12T10:51:47.711Z,0.60
2019-05-12T10:54:17.265Z,0.60
2019-05-12T10:56:46.308Z,0.78
2019-05-12T10:59:29.022Z,0.70
2019-05-12T11:01:49.053Z,0.73
2019-05-12T11:04:16.999Z,0.60
2019-05-12T11:06:48.527Z,0.73
2019-05-12T11:09:21.245Z,0.98
2019-05-12T11:11:53.845Z,0.60
2019-05-12T11:14:26.411Z,0.80
2019-05-12T11:16:54.237Z,0.90
2019-05-12T11:19:23.737Z,0.90
2019-05-12T11:22:05.050Z,0.70
2019-05-12T11:24:36.683Z,0.80
2019-05-12T11:27:13.423Z,0.80
2019-05-12T11:29:53.318Z,0.70
2019-05-12T11:32:37.921Z,0.80
2019-05-12T11:35:11.607Z,0.80
2019-05-12T11:37:46.193Z,0.60
2019-05-12T11:40:16.096Z,0.70
2019-05-12T11:42:46.850Z,0.93
2019-05-12T11:45:15.553Z,1.60
2019-05-12T11:47:44.740Z,1.43
2019-05-12T11:50:14.124Z,1.33
2019-05-12T11:52:45.952Z,0.90
2019-05-12T11:55:21.286Z,1.43
2019-05-12T11:57:48.929Z,1.23
2019-05-12T12:00:19.569Z,1.10
2019-05-12T12:02:49.953Z,1.20
2019-05-12T12:05:18.849Z,1.02
2019-05-12T12:07:52.624Z,0.93
2019-05-12T12:10:19.730Z,0.90
2019-05-12T12:12:49.452Z,0.73
2019-05-12T12:15:26.339Z,0.98
2019-05-12T12:17:56.200Z,0.70
2019-05-12T12:20:25.793Z,1.13
2019-05-12T12:22:54.624Z,0.70
2019-05-12T12:25:25.119Z,0.85
2019-05-12T12:27:54.169Z,1.13
2019-05-12T12:30:24.523Z,0.60
2019-05-12T12:32:56.957Z,0.80
2019-05-12T12:35:24.526Z,1.10
2019-05-12T12:37:54.231Z,0.80
2019-05-12T12:40:23.550Z,0.87
2019-05-12T12:42:53.808Z,1.50
2019-05-12T12:45:30.324Z,0.80
2019-05-12T12:47:58.793Z,1.10
2019-05-12T12:50:30.499Z,1.17
2019-05-12T12:52:58.218Z,1.00
2019-05-12T12:55:27.400Z,0.70
2019-05-12T12:57:56.508Z,1.10
2019-05-12T13:00:32.160Z,1.03
2019-05-12T13:02:57.611Z,0.70
2019-05-12T13:05:28.003Z,0.83
2019-05-12T13:07:56.967Z,0.50
2019-05-12T13:10:25.718Z,0.50
2019-05-12T13:12:59.434Z,0.80
2019-05-12T13:15:26.135Z,0.70
2019-05-12T13:17:54.926Z,0.40
2019-05-12T13:20:24.108Z,0.60
2019-05-12T13:22:53.688Z,0.60
2019-05-12T13:25:22.768Z,0.50
2019-05-12T13:27:53.464Z,0.50
2019-05-12T13:30:24.318Z,0.80
2019-05-12T13:32:53.030Z,0.70
2019-05-12T13:35:23.763Z,0.50
2019-05-12T13:37:56.553Z,0.70
2019-05-12T13:40:23.432Z,0.70
2019-05-12T13:42:54.505Z,1.17
2019-05-12T13:45:24.250Z,0.50
2019-05-12T13:47:53.555Z,0.67
2019-05-12T13:50:26.256Z,0.65
2019-05-12T13:52:54.302Z,0.40
2019-05-12T13:55:25.656Z,0.50
2019-05-12T13:57:57.736Z,0.70
2019-05-12T14:00:25.023Z,0.50
2019-05-12T14:03:03.300Z,0.53
2019-05-12T14:05:27.150Z,0.60
2019-05-12T14:07:57.433Z,0.70
2019-05-12T14:10:26.349Z,0.60
2019-05-12T14:12:55.161Z,0.80
2019-05-12T14:15:24.862Z,0.50
2019-05-12T14:17:54.451Z,0.50
2019-05-12T14:20:23.914Z,0.60
2019-05-12T14:22:53.951Z,0.60
2019-05-12T14:25:29.837Z,0.55
2019-05-12T14:27:53.774Z,0.60
2019-05-12T14:30:24.587Z,1.10
2019-05-12T14:32:55.184Z,0.60
2019-05-12T14:35:23.982Z,0.70
2019-05-12T14:37:55.389Z,0.60
2019-05-12T14:40:29.920Z,0.80
2019-05-12T14:42:54.841Z,0.90
2019-05-12T14:45:29.761Z,0.70
2019-05-12T14:47:59.972Z,1.00
2019-05-12T14:50:26.187Z,1.07
2019-05-12T14:52:59.524Z,0.80
2019-05-12T14:55:25.699Z,0.70
2019-05-12T14:57:54.556Z,0.57
2019-05-12T15:00:24.147Z,0.57
2019-05-12T15:02:54.106Z,0.70
2019-05-12T15:05:25.356Z,0.40
2019-05-12T15:07:56.475Z,0.60
2019-05-12T15:10:23.952Z,0.63
2019-05-12T15:12:54.325Z,1.10
2019-05-12T15:15:24.270Z,0.77
2019-05-12T15:18:02.584Z,0.60
2019-05-12T15:20:24.606Z,0.87
2019-05-12T15:22:55.375Z,1.50
2019-05-12T15:25:23.921Z,0.93
2019-05-12T15:27:54.349Z,0.60
2019-05-12T15:30:26.522Z,0.95
2019-05-12T15:32:53.827Z,1.10
2019-05-12T15:35:24.099Z,0.65
2019-05-12T15:37:55.087Z,0.63
2019-05-12T15:40:23.930Z,0.50
2019-05-12T15:42:55.110Z,0.70
2019-05-12T15:45:23.852Z,0.83
2019-05-12T15:47:53.507Z,0.80
2019-05-12T15:50:23.162Z,1.30
2019-05-12T15:52:54.699Z,0.60
2019-05-12T15:55:25.631Z,0.80
2019-05-12T15:57:54.501Z,0.63
2019-05-12T16:00:24.399Z,0.90
2019-05-12T16:02:53.522Z,0.90
2019-05-12T16:05:28.713Z,0.62
2019-05-12T16:07:54.055Z,1.00
2019-05-12T16:10:23.643Z,0.63
2019-05-12T16:12:53.371Z,0.80
2019-05-12T16:15:22.393Z,0.67
2019-05-12T16:17:51.262Z,0.67
2019-05-12T16:20:20.113Z,0.90
2019-05-12T16:22:49.013Z,0.73
2019-05-12T16:25:20.806Z,0.87
2019-05-12T16:27:48.439Z,0.87
2019-05-12T16:30:20.305Z,0.80
2019-05-12T16:32:48.818Z,0.70
2019-05-12T16:35:20.132Z,3.73
2019-05-12T16:37:48.706Z,1.43
2019-05-12T16:40:17.782Z,1.37
2019-05-12T16:42:51.167Z,0.80
2019-05-12T16:45:20.080Z,0.70
2019-05-12T16:47:49.331Z,0.73
2019-05-12T16:50:27.696Z,0.78
2019-05-12T16:52:54.485Z,0.60
2019-05-12T16:55:30.769Z,0.82
2019-05-12T16:57:59.811Z,0.90
2019-05-12T17:00:30.965Z,1.10
2019-05-12T17:02:59.323Z,0.80
2019-05-12T17:05:28.248Z,0.80
2019-05-12T17:07:57.519Z,1.03
2019-05-12T17:10:26.512Z,0.80
2019-05-12T17:12:55.738Z,0.90
2019-05-12T17:15:24.792Z,1.30
2019-05-12T17:17:59.258Z,0.73
2019-05-12T17:20:24.133Z,0.80
2019-05-12T17:22:55.140Z,0.97
2019-05-12T17:25:24.174Z,0.90
2019-05-12T17:27:53.278Z,0.80
2019-05-12T17:30:23.855Z,0.60
2019-05-12T17:33:00.886Z,0.63
2019-05-12T17:35:31.724Z,0.70
2019-05-12T17:37:59.499Z,0.80
2019-05-12T17:40:28.412Z,0.70
2019-05-12T17:43:06.941Z,0.70
2019-05-12T17:45:28.088Z,0.63
2019-05-12T17:48:02.797Z,0.70
2019-05-12T17:50:28.141Z,0.97
2019-05-12T17:53:00.245Z,0.70
2019-05-12T17:55:29.195Z,1.93
2019-05-12T17:57:58.258Z,0.70
2019-05-12T18:00:27.797Z,1.07
2019-05-12T18:03:14.539Z,0.80
2019-05-12T18:05:27.274Z,2.33
2019-05-12T18:07:57.396Z,0.80
2019-05-12T18:10:43.637Z,0.47
2019-05-12T18:13:23.002Z,0.97
2019-05-12T18:15:45.168Z,0.87
2019-05-12T18:18:17.292Z,0.60
2019-05-12T18:20:44.689Z,0.80
2019-05-12T18:23:13.657Z,1.00
2019-05-12T18:25:44.292Z,1.37
2019-05-12T18:28:14.042Z,1.03
2019-05-12T18:30:43.629Z,0.93
2019-05-12T18:33:13.784Z,0.63
2019-05-12T18:35:43.970Z,1.10
2019-05-12T18:38:18.290Z,1.23
2019-05-12T18:40:43.629Z,0.70
2019-05-12T18:43:14.198Z,0.90
2019-05-12T18:45:43.058Z,1.23
2019-05-12T18:48:20.289Z,0.60
2019-05-12T18:50:44.198Z,1.32
2019-05-12T18:53:14.834Z,0.80
2019-05-12T18:55:44.360Z,0.70
2019-05-12T18:58:14.792Z,1.43
2019-05-12T19:00:44.119Z,0.80
2019-05-12T19:03:13.990Z,1.27
2019-05-12T19:05:43.841Z,0.90
2019-05-12T19:08:13.999Z,0.98
2019-05-12T19:10:47.313Z,0.80
2019-05-12T19:13:13.807Z,0.85
2019-05-12T19:15:44.120Z,0.60
2019-05-12T19:18:18.039Z,0.60
2019-05-12T19:20:47.560Z,0.80
2019-05-12T19:23:15.074Z,0.90
2019-05-12T19:25:43.858Z,1.10
2019-05-12T19:28:13.534Z,0.90
2019-05-12T19:30:43.864Z,1.20
2019-05-12T19:33:13.572Z,1.17
2019-05-12T19:35:43.492Z,0.80
2019-05-12T19:38:15.228Z,1.17
2019-05-12T19:40:47.334Z,1.60
2019-05-12T19:43:14.102Z,1.33
2019-05-12T19:45:44.635Z,0.70
2019-05-12T19:48:23.588Z,1.12
2019-05-12T19:50:52.094Z,1.80
2019-05-12T19:53:14.596Z,1.00
2019-05-12T19:55:44.381Z,1.43
2019-05-12T19:58:13.197Z,1.47
2019-05-12T20:00:43.853Z,1.17
2019-05-12T20:03:13.918Z,1.30
2019-05-12T20:05:43.473Z,1.50
2019-05-12T20:08:13.775Z,1.43
2019-05-12T20:10:49.248Z,1.50
2019-05-12T20:13:13.781Z,0.60
2019-05-12T20:15:43.778Z,1.40
2019-05-12T20:18:14.691Z,1.10
2019-05-12T20:20:46.697Z,1.70
2019-05-12T20:23:24.591Z,1.03
2019-05-12T20:25:54.041Z,1.20
2019-05-12T20:28:24.195Z,1.43
2019-05-12T20:31:00.897Z,1.30
2019-05-12T20:33:24.262Z,2.23
2019-05-12T20:35:55.282Z,1.63
2019-05-12T20:38:27.231Z,1.40
2019-05-12T20:40:54.563Z,1.30
2019-05-12T20:43:32.050Z,1.47
2019-05-12T20:45:54.170Z,1.50
2019-05-12T20:48:29.214Z,1.30
2019-05-12T20:50:54.693Z,2.00
2019-05-12T20:53:31.605Z,1.73
2019-05-12T20:55:54.711Z,1.37
2019-05-12T20:58:28.603Z,0.90
2019-05-12T21:00:54.596Z,1.20
2019-05-12T21:03:24.304Z,1.30
2019-05-12T21:05:58.274Z,1.20
2019-05-12T21:08:24.389Z,1.90
2019-05-12T21:10:54.151Z,1.67
2019-05-12T21:13:30.250Z,1.00
2019-05-12T21:15:58.363Z,1.30
2019-05-12T21:18:26.756Z,1.63
2019-05-12T21:20:55.590Z,1.40
2019-05-12T21:23:24.447Z,1.50
2019-05-12T21:25:58.127Z,1.47
2019-05-12T21:28:25.761Z,2.20
2019-05-12T21:30:55.807Z,2.13
2019-05-12T21:33:24.837Z,2.00
2019-05-12T21:35:54.645Z,2.30
2019-05-12T21:38:27.444Z,3.00
2019-05-12T21:40:54.174Z,2.60
2019-05-12T21:43:23.090Z,1.80
2019-05-12T21:45:53.713Z,1.57
2019-05-12T21:48:24.310Z,1.70
2019-05-12T21:50:55.642Z,1.80
2019-05-12T21:53:24.049Z,1.30
2019-05-12T21:55:57.713Z,1.60
2019-05-12T21:58:23.351Z,1.90
2019-05-12T22:00:59.586Z,1.87
2019-05-12T22:03:27.009Z,1.63
2019-05-12T22:05:55.910Z,1.43
2019-05-12T22:08:26.245Z,1.47
2019-05-12T22:10:55.338Z,3.40
2019-05-12T22:13:24.059Z,1.30
2019-05-12T22:15:57.112Z,2.63
2019-05-12T22:18:23.858Z,1.30
2019-05-12T22:21:01.016Z,1.60
2019-05-12T22:23:24.740Z,1.60
2019-05-12T22:25:55.750Z,1.43
2019-05-12T22:28:24.172Z,2.03
2019-05-12T22:30:54.168Z,1.42
2019-05-12T22:33:24.212Z,1.97
2019-05-12T22:36:02.932Z,1.70
2019-05-12T22:38:24.893Z,1.90
2019-05-12T22:40:56.078Z,1.87
2019-05-12T22:43:24.427Z,1.50
2019-05-12T22:45:54.797Z,2.27
2019-05-12T22:48:23.766Z,2.10
2019-05-12T22:50:54.826Z,2.00
2019-05-12T22:53:28.223Z,1.83
2019-05-12T22:55:53.820Z,1.47
2019-05-12T22:58:25.382Z,2.20
2019-05-12T23:01:00.715Z,1.45
2019-05-12T23:03:23.699Z,1.80
2019-05-12T23:06:00.117Z,1.90
2019-05-12T23:08:24.704Z,2.25
2019-05-12T23:10:56.065Z,2.40
2019-05-12T23:13:24.192Z,2.20
2019-05-12T23:15:52.979Z,2.03
2019-05-12T23:18:27.073Z,1.90
2019-05-12T23:20:54.107Z,2.60
2019-05-12T23:23:24.366Z,2.83
2019-05-12T23:26:00.109Z,1.70
2019-05-12T23:28:23.732Z,2.07
2019-05-12T23:30:53.494Z,2.43
2019-05-12T23:33:31.243Z,1.83
2019-05-12T23:35:53.617Z,2.50
2019-05-12T23:38:24.631Z,2.37
2019-05-12T23:40:53.771Z,1.70
2019-05-12T23:43:23.785Z,1.40
2019-05-12T23:45:53.641Z,1.63
2019-05-12T23:48:22.517Z,1.70
2019-05-12T23:50:51.581Z,2.33
2019-05-12T23:53:20.406Z,1.70
2019-05-12T23:55:50.414Z,2.60
2019-05-12T23:58:19.327Z,2.85
